ワルシャワ の空港の天気 - METARとTAF

ワルシャワ・フレデリック・ショパン空港 ( EPWA / WAW ) - ポーランド ワルシャワ
飛行場実況気象(Metar)
観測時間01/19 12:00 CET (01/19 11:00 UTC)
風向・風速西 3m/s
視程10km以上
天気現象
全天の4割程度の雲 雲底高度 550m
全天の4割程度の雲 雲底高度 980m
気温0℃
湿度69%
気圧1021hPa
METAREPWA 191100Z 27006KT 220V300 9999 SCT018 SCT032 M00/M05 Q1021 NOSIG
過去の天気等 Google飛行場航空写真 Wunderground天気予報

過去48時間のMETAR

飛行場予報(TAF)
発表時間: 1/19 09:30 CET (1/19 08:30 UTC)
予報対象時間: 19日10時 CET ~ 20日10時 CET
風向・風速南西 3m/s
視程10km以上
全天の8割程度の雲 雲底高度 760m
20日2時 CET から 確率 40% で
視程3000m
天気現象もや
TAF EPWA 190830Z 1909/2009 23005KT 9999 BKN025
PROB40 2001/2008 3000 BR